createdAt,value
2022-09-29T00:00:23.121Z,3.65
2022-09-29T00:02:49.652Z,3.90
2022-09-29T00:05:16.418Z,3.55
2022-09-29T00:07:43.091Z,3.67
2022-09-29T00:10:09.686Z,3.45
2022-09-29T00:12:36.289Z,4.10
2022-09-29T00:15:03.217Z,3.53
2022-09-29T00:17:29.820Z,3.63
2022-09-29T00:19:56.322Z,3.33
2022-09-29T00:22:22.857Z,3.67
2022-09-29T00:24:49.650Z,3.42
2022-09-29T00:27:17.582Z,3.88
2022-09-29T00:29:44.182Z,3.38
2022-09-29T00:32:11.033Z,3.70
2022-09-29T00:34:37.733Z,3.80
2022-09-29T00:37:04.592Z,3.30
2022-09-29T00:39:31.154Z,3.47
2022-09-29T00:41:57.869Z,3.80
2022-09-29T00:44:55.443Z,3.55
2022-09-29T00:47:23.049Z,3.70
2022-09-29T00:49:56.928Z,3.60
2022-09-29T00:52:29.817Z,3.90
2022-09-29T00:55:01.225Z,3.53
2022-09-29T00:57:37.102Z,3.80
2022-09-29T01:00:09.942Z,3.95
2022-09-29T01:02:39.972Z,3.90
2022-09-29T01:05:11.799Z,4.15
2022-09-29T01:07:39.109Z,4.18
2022-09-29T01:10:06.512Z,4.07
2022-09-29T01:12:33.198Z,4.03
2022-09-29T01:15:00.635Z,4.07
2022-09-29T01:17:27.729Z,3.80
2022-09-29T01:20:15.172Z,4.15
2022-09-29T01:22:59.840Z,3.67
2022-09-29T01:26:00.038Z,4.27
2022-09-29T01:29:03.522Z,3.40
2022-09-29T01:31:45.901Z,3.67
2022-09-29T01:34:30.911Z,3.63
2022-09-29T01:37:06.189Z,4.05
2022-09-29T01:39:43.204Z,3.80
2022-09-29T01:42:17.310Z,3.97
2022-09-29T01:44:48.907Z,3.88
2022-09-29T01:47:31.170Z,3.83
2022-09-29T01:50:18.171Z,3.70
2022-09-29T01:52:48.435Z,3.97
2022-09-29T01:55:21.522Z,3.55
2022-09-29T01:58:05.465Z,3.67
2022-09-29T02:00:38.920Z,3.50
2022-09-29T02:03:14.738Z,4.28
2022-09-29T02:05:52.425Z,3.90
2022-09-29T02:08:42.882Z,4.10
2022-09-29T02:11:14.662Z,3.72
2022-09-29T02:13:45.272Z,3.70
2022-09-29T02:16:19.198Z,4.28
2022-09-29T02:18:58.144Z,4.15
2022-09-29T02:21:26.321Z,3.72
2022-09-29T02:23:52.914Z,3.97
2022-09-29T02:26:20.285Z,4.50
2022-09-29T02:28:47.518Z,4.00
2022-09-29T02:31:14.809Z,3.95
2022-09-29T02:33:41.350Z,4.22
2022-09-29T02:36:16.099Z,3.85
2022-09-29T02:38:44.785Z,4.20
2022-09-29T02:41:33.797Z,4.43
2022-09-29T02:44:09.155Z,4.35
2022-09-29T02:46:57.244Z,4.60
2022-09-29T02:49:41.631Z,4.28
2022-09-29T02:52:42.895Z,4.78
2022-09-29T02:55:35.439Z,4.57
2022-09-29T02:58:15.161Z,4.72
2022-09-29T03:00:42.654Z,4.32
2022-09-29T03:03:09.245Z,4.95
2022-09-29T03:05:36.106Z,4.72
2022-09-29T03:08:02.670Z,4.82
2022-09-29T03:10:30.400Z,4.20
2022-09-29T03:12:57.134Z,4.93
2022-09-29T03:15:24.339Z,4.95
2022-09-29T03:17:50.850Z,4.18
2022-09-29T03:20:17.333Z,4.22
2022-09-29T03:22:43.864Z,4.55
2022-09-29T03:25:12.388Z,4.50
2022-09-29T03:27:39.172Z,4.80
2022-09-29T03:30:06.539Z,4.63
2022-09-29T03:32:33.029Z,4.30
2022-09-29T03:34:59.667Z,4.55
2022-09-29T03:37:26.156Z,4.35
2022-09-29T03:39:52.703Z,4.85
2022-09-29T03:42:22.587Z,4.65
2022-09-29T03:44:49.297Z,4.82
2022-09-29T03:47:15.885Z,4.93
2022-09-29T03:49:42.532Z,4.97
2022-09-29T03:52:09.098Z,5.10
2022-09-29T03:54:35.693Z,4.82
2022-09-29T03:57:02.434Z,5.30
2022-09-29T03:59:29.021Z,5.25
2022-09-29T04:01:56.243Z,4.65
2022-09-29T04:04:22.898Z,5.32
2022-09-29T04:06:49.453Z,5.63
2022-09-29T04:09:16.110Z,4.90
2022-09-29T04:11:42.701Z,5.80
2022-09-29T04:14:09.184Z,5.22
2022-09-29T04:16:35.815Z,5.68
2022-09-29T04:19:02.505Z,5.53
2022-09-29T04:21:29.090Z,5.10
2022-09-29T04:23:55.650Z,5.75
2022-09-29T04:26:22.212Z,5.38
2022-09-29T04:28:48.825Z,5.20
2022-09-29T04:31:15.506Z,5.65
2022-09-29T04:33:42.112Z,5.75
2022-09-29T04:36:08.909Z,5.93
2022-09-29T04:38:35.429Z,5.70
2022-09-29T04:41:02.088Z,6.18
2022-09-29T04:43:28.863Z,5.30
2022-09-29T04:46:05.459Z,6.20
2022-09-29T04:48:35.615Z,5.40
2022-09-29T04:51:03.789Z,5.22
2022-09-29T04:53:30.318Z,5.90
2022-09-29T04:55:56.965Z,5.35
2022-09-29T04:58:23.538Z,5.57
2022-09-29T05:00:50.178Z,7.97
2022-09-29T05:03:16.780Z,6.80
2022-09-29T05:05:43.340Z,5.90
2022-09-29T05:08:09.994Z,5.50
2022-09-29T05:10:36.690Z,5.50
2022-09-29T05:13:03.268Z,5.90
2022-09-29T05:15:29.955Z,6.28
2022-09-29T05:17:56.494Z,6.47
2022-09-29T05:20:23.022Z,6.07
2022-09-29T05:22:49.561Z,7.05
2022-09-29T05:25:16.134Z,6.13
2022-09-29T05:27:42.824Z,6.32
2022-09-29T05:30:09.863Z,6.32
2022-09-29T05:32:36.397Z,5.97
2022-09-29T05:35:04.049Z,5.65
2022-09-29T05:37:30.566Z,5.80
2022-09-29T05:39:57.232Z,5.78
2022-09-29T05:42:25.557Z,6.18
2022-09-29T05:44:52.133Z,6.35
2022-09-29T05:47:18.843Z,6.13
2022-09-29T05:49:45.672Z,5.10
2022-09-29T05:52:12.217Z,5.63
2022-09-29T05:54:38.820Z,5.72
2022-09-29T05:57:05.407Z,5.53
2022-09-29T05:59:31.993Z,5.32
2022-09-29T06:01:58.666Z,6.07
2022-09-29T06:04:25.219Z,5.55
2022-09-29T06:06:52.306Z,6.13
2022-09-29T06:09:18.905Z,5.70
2022-09-29T06:11:45.431Z,5.25
2022-09-29T06:14:12.024Z,6.00
2022-09-29T06:16:38.680Z,6.10
2022-09-29T06:19:05.703Z,5.90
2022-09-29T06:21:34.574Z,6.10
2022-09-29T06:24:01.561Z,5.20
2022-09-29T06:26:28.642Z,5.10
2022-09-29T06:28:56.040Z,5.00
2022-09-29T06:31:25.110Z,5.45
2022-09-29T06:33:51.730Z,5.68
2022-09-29T06:36:41.957Z,5.10
2022-09-29T06:39:11.686Z,4.68
2022-09-29T06:41:38.601Z,5.53
2022-09-29T06:44:05.133Z,5.40
2022-09-29T06:46:31.755Z,5.45
2022-09-29T06:48:58.566Z,5.40
2022-09-29T06:51:35.825Z,5.45
2022-09-29T06:54:11.941Z,5.68
2022-09-29T06:56:38.909Z,5.30
2022-09-29T06:59:05.942Z,5.75
2022-09-29T07:01:32.707Z,5.50
2022-09-29T07:04:02.686Z,5.45
2022-09-29T07:06:30.491Z,5.68
2022-09-29T07:08:58.886Z,5.05
2022-09-29T07:11:26.470Z,5.90
2022-09-29T07:13:54.670Z,5.72
2022-09-29T07:16:25.374Z,5.85
2022-09-29T07:18:53.015Z,6.03
2022-09-29T07:21:20.670Z,6.70
2022-09-29T07:23:47.840Z,6.00
2022-09-29T07:26:16.471Z,6.50
2022-09-29T07:28:45.593Z,6.10
2022-09-29T07:31:20.626Z,6.30
2022-09-29T07:33:49.518Z,6.90
2022-09-29T07:36:18.561Z,6.75
2022-09-29T07:38:49.760Z,7.38
2022-09-29T07:41:18.285Z,6.72
2022-09-29T07:43:44.953Z,6.13
2022-09-29T07:46:11.742Z,7.40
2022-09-29T07:48:39.727Z,7.05
2022-09-29T07:51:15.510Z,6.43
2022-09-29T07:53:42.097Z,6.70
2022-09-29T07:56:09.986Z,6.22
2022-09-29T07:58:37.690Z,6.65
2022-09-29T08:01:10.177Z,6.57
2022-09-29T08:03:38.841Z,6.65
2022-09-29T08:06:06.818Z,6.28
2022-09-29T08:08:36.980Z,6.65
2022-09-29T08:11:26.389Z,6.65
2022-09-29T08:13:54.907Z,6.22
2022-09-29T08:16:21.750Z,6.80
2022-09-29T08:18:48.447Z,6.95
2022-09-29T08:21:15.891Z,7.13
2022-09-29T08:23:43.698Z,6.57
2022-09-29T08:26:16.213Z,6.40
2022-09-29T08:28:43.688Z,7.30
2022-09-29T08:31:21.544Z,11.00
2022-09-29T08:33:49.869Z,11.63
2022-09-29T08:36:17.265Z,14.35
2022-09-29T08:38:53.688Z,12.93
2022-09-29T08:41:45.013Z,13.05
2022-09-29T08:44:36.864Z,13.43
2022-09-29T08:47:18.282Z,13.32
2022-09-29T08:50:26.211Z,12.77
2022-09-29T08:52:58.800Z,12.85
2022-09-29T08:55:44.282Z,11.60
2022-09-29T08:58:16.816Z,11.90
2022-09-29T09:00:51.971Z,12.00
2022-09-29T09:06:19.869Z,12.90
2022-09-29T09:08:55.448Z,12.10
2022-09-29T09:11:52.199Z,12.38
2022-09-29T09:14:41.421Z,12.63
2022-09-29T09:17:32.366Z,13.13
2022-09-29T09:20:16.952Z,13.18
2022-09-29T09:23:35.674Z,12.57
2022-09-29T09:26:04.178Z,11.73
2022-09-29T09:28:39.658Z,11.52
2022-09-29T09:31:20.096Z,11.05
2022-09-29T09:34:04.967Z,13.63
2022-09-29T09:36:41.225Z,13.13
2022-09-29T09:39:15.716Z,13.98
2022-09-29T09:41:47.521Z,14.43
2022-09-29T09:44:17.722Z,14.40
2022-09-29T09:46:59.884Z,13.88
2022-09-29T09:49:41.112Z,15.10
2022-09-29T09:52:40.666Z,14.43
2022-09-29T09:55:15.282Z,14.18
2022-09-29T09:57:58.502Z,13.45
2022-09-29T10:00:35.223Z,13.48
2022-09-29T10:03:04.998Z,13.50
2022-09-29T10:05:41.200Z,13.45
2022-09-29T10:08:23.700Z,13.15
2022-09-29T10:10:58.010Z,13.55
2022-09-29T10:15:59.614Z,13.60
2022-09-29T10:18:46.648Z,13.75
2022-09-29T10:21:23.709Z,12.50
2022-09-29T10:23:52.803Z,12.40
2022-09-29T10:26:29.473Z,11.65
2022-09-29T10:29:02.570Z,11.10
2022-09-29T10:31:35.204Z,11.25
2022-09-29T10:34:10.526Z,10.45
2022-09-29T10:37:01.375Z,10.77
2022-09-29T10:39:32.253Z,10.50
2022-09-29T10:41:58.872Z,9.45
2022-09-29T10:44:33.676Z,10.13
2022-09-29T10:47:00.473Z,9.82
2022-09-29T10:49:29.164Z,10.00
2022-09-29T10:52:00.877Z,9.32
2022-09-29T10:54:30.235Z,9.20
2022-09-29T10:56:58.330Z,9.77
2022-09-29T10:59:25.751Z,8.93
2022-09-29T11:01:56.534Z,9.20
2022-09-29T11:04:36.277Z,9.57
2022-09-29T11:07:10.876Z,9.25
2022-09-29T11:09:55.597Z,7.93
2022-09-29T11:12:39.402Z,7.43
2022-09-29T11:15:27.529Z,7.13
2022-09-29T11:17:54.844Z,6.90
2022-09-29T11:20:25.545Z,6.30
2022-09-29T11:22:56.517Z,6.60
2022-09-29T11:25:51.847Z,6.82
2022-09-29T11:28:48.510Z,7.47
2022-09-29T11:31:50.283Z,7.40
2022-09-29T11:35:05.775Z,6.15
2022-09-29T11:37:53.294Z,5.63
2022-09-29T11:40:41.922Z,6.13
2022-09-29T11:43:37.937Z,6.40
2022-09-29T11:49:14.925Z,4.57
2022-09-29T11:51:55.325Z,4.40
2022-09-29T11:54:34.354Z,4.05
2022-09-29T11:57:19.633Z,4.57
2022-09-29T11:59:55.523Z,4.45
2022-09-29T12:02:34.085Z,4.50
2022-09-29T12:05:08.297Z,4.07
2022-09-29T12:07:57.607Z,4.30
2022-09-29T12:10:48.737Z,4.28
2022-09-29T12:13:24.326Z,4.28
2022-09-29T12:16:11.246Z,3.85
2022-09-29T12:18:45.769Z,4.85
2022-09-29T12:21:17.731Z,3.45
2022-09-29T12:23:46.455Z,2.40
2022-09-29T12:26:21.135Z,2.40
2022-09-29T12:28:55.923Z,2.40
2022-09-29T12:31:51.118Z,2.80
2022-09-29T12:34:58.226Z,3.00
2022-09-29T12:37:43.025Z,2.90
2022-09-29T12:40:20.063Z,2.75
2022-09-29T12:43:01.357Z,2.75
2022-09-29T12:45:55.133Z,2.70
2022-09-29T12:48:58.434Z,2.58
2022-09-29T12:51:33.142Z,2.45
2022-09-29T12:54:22.365Z,2.30
2022-09-29T12:56:59.550Z,2.13
2022-09-29T12:59:41.297Z,2.00
2022-09-29T13:02:23.141Z,2.13
2022-09-29T13:05:21.697Z,2.50
2022-09-29T13:08:25.953Z,2.58
2022-09-29T13:11:08.615Z,2.58
2022-09-29T13:14:04.274Z,2.58
2022-09-29T13:16:54.837Z,2.60
2022-09-29T13:19:57.371Z,2.22
2022-09-29T13:22:27.696Z,2.20
2022-09-29T13:25:30.183Z,2.30
2022-09-29T13:27:57.838Z,2.53
2022-09-29T13:30:36.971Z,2.20
2022-09-29T13:33:18.933Z,1.85
2022-09-29T13:35:49.055Z,2.45
2022-09-29T13:38:22.000Z,2.35
2022-09-29T13:41:12.237Z,1.73
2022-09-29T13:44:01.807Z,1.88
2022-09-29T13:46:31.416Z,2.15
2022-09-29T13:49:13.116Z,2.30
2022-09-29T13:51:47.706Z,2.00
2022-09-29T13:54:34.475Z,2.08
2022-09-29T13:57:13.182Z,2.40
2022-09-29T13:59:42.746Z,2.22
2022-09-29T14:02:39.779Z,2.20
2022-09-29T14:05:24.795Z,2.40
2022-09-29T14:07:57.321Z,1.80
2022-09-29T14:10:42.169Z,2.20
2022-09-29T14:13:25.705Z,2.30
2022-09-29T14:15:55.279Z,2.40
2022-09-29T14:18:24.593Z,2.17
2022-09-29T14:21:03.956Z,2.70
2022-09-29T14:23:45.703Z,1.95
2022-09-29T14:26:44.741Z,2.53
2022-09-29T14:29:33.919Z,2.30
2022-09-29T14:32:02.047Z,2.22
2022-09-29T14:34:31.136Z,1.77
2022-09-29T14:36:59.809Z,2.10
2022-09-29T14:39:27.675Z,2.20
2022-09-29T14:41:54.538Z,2.15
2022-09-29T14:44:24.902Z,1.80
2022-09-29T14:47:45.705Z,1.70
2022-09-29T14:51:01.810Z,1.95
2022-09-29T14:53:48.510Z,2.05
2022-09-29T14:56:19.491Z,1.73
2022-09-29T14:59:00.022Z,1.80
2022-09-29T15:01:27.757Z,2.25
2022-09-29T15:03:58.139Z,2.15
2022-09-29T15:06:28.812Z,1.92
2022-09-29T15:09:18.530Z,1.80
2022-09-29T15:12:02.305Z,2.03
2022-09-29T15:14:36.900Z,1.90
2022-09-29T15:17:50.202Z,2.10
2022-09-29T15:20:33.742Z,2.10
2022-09-29T15:23:44.482Z,2.22
2022-09-29T15:26:15.035Z,2.22
2022-09-29T15:28:43.023Z,2.17
2022-09-29T15:31:25.822Z,1.80
2022-09-29T15:33:52.577Z,2.00
2022-09-29T15:36:24.947Z,1.73
2022-09-29T15:39:04.172Z,2.30
2022-09-29T15:41:33.148Z,1.90
2022-09-29T15:44:03.730Z,1.92
2022-09-29T15:46:34.995Z,2.08
2022-09-29T15:49:20.005Z,1.85
2022-09-29T15:52:03.514Z,1.90
2022-09-29T15:57:43.352Z,2.10
2022-09-29T16:00:21.965Z,1.58
2022-09-29T16:02:54.249Z,1.67
2022-09-29T16:05:24.979Z,1.95
2022-09-29T16:08:04.523Z,2.00
2022-09-29T16:10:34.160Z,3.15
2022-09-29T16:13:05.954Z,2.72
2022-09-29T16:15:41.543Z,1.75
2022-09-29T16:18:13.166Z,1.98
2022-09-29T16:20:44.301Z,1.88
2022-09-29T16:23:22.116Z,1.77
2022-09-29T16:26:06.789Z,1.73
2022-09-29T16:28:36.103Z,1.80
2022-09-29T16:31:07.385Z,2.05
2022-09-29T16:33:36.332Z,1.90
2022-09-29T16:36:13.476Z,2.63
2022-09-29T16:38:51.442Z,2.60
2022-09-29T16:41:35.238Z,2.42
2022-09-29T16:44:07.073Z,2.20
2022-09-29T16:46:34.315Z,1.88
2022-09-29T16:49:01.598Z,2.70
2022-09-29T16:51:38.771Z,3.47
2022-09-29T16:54:06.303Z,3.28
2022-09-29T16:56:35.347Z,4.20
2022-09-29T16:59:09.047Z,4.15
2022-09-29T17:01:35.693Z,5.85
2022-09-29T17:04:02.289Z,6.00
2022-09-29T17:06:30.862Z,5.40
2022-09-29T17:08:58.844Z,4.90
2022-09-29T17:11:27.581Z,4.13
2022-09-29T17:13:56.390Z,4.03
2022-09-29T17:16:27.832Z,3.50
2022-09-29T17:18:56.114Z,3.00
2022-09-29T17:21:23.784Z,2.35
2022-09-29T17:23:50.406Z,2.22
2022-09-29T17:27:02.393Z,2.47
2022-09-29T17:29:29.753Z,3.03
2022-09-29T17:31:56.810Z,3.20
2022-09-29T17:34:28.712Z,3.75
2022-09-29T17:36:59.627Z,4.10
2022-09-29T17:39:26.529Z,3.72
2022-09-29T17:41:53.329Z,4.35
2022-09-29T17:44:20.301Z,4.35
2022-09-29T17:46:47.049Z,4.30
2022-09-29T17:49:15.472Z,3.78
2022-09-29T17:51:42.271Z,4.03
2022-09-29T17:54:08.954Z,4.18
2022-09-29T17:56:40.805Z,3.80
2022-09-29T17:59:09.998Z,4.28
2022-09-29T18:01:37.273Z,3.33
2022-09-29T18:04:05.465Z,3.78
2022-09-29T18:06:35.159Z,3.50
2022-09-29T18:09:01.913Z,3.08
2022-09-29T18:11:28.549Z,3.70
2022-09-29T18:13:55.847Z,3.70
2022-09-29T18:16:23.733Z,3.80
2022-09-29T18:18:55.509Z,4.45
2022-09-29T18:21:24.765Z,4.57
2022-09-29T18:23:51.377Z,4.30
2022-09-29T18:26:18.601Z,4.07
2022-09-29T18:28:48.190Z,4.55
2022-09-29T18:31:28.939Z,4.60
2022-09-29T18:33:55.677Z,4.57
2022-09-29T18:36:22.389Z,4.65
2022-09-29T18:38:49.136Z,4.20
2022-09-29T18:41:23.119Z,4.78
2022-09-29T18:43:49.833Z,4.60
2022-09-29T18:46:17.514Z,4.10
2022-09-29T18:48:44.323Z,4.38
2022-09-29T18:51:13.326Z,4.60
2022-09-29T18:53:41.737Z,4.80
2022-09-29T18:56:17.280Z,4.75
2022-09-29T18:58:44.331Z,5.20
2022-09-29T19:01:16.460Z,4.65
2022-09-29T19:03:43.117Z,6.20
2022-09-29T19:06:15.413Z,6.22
2022-09-29T19:08:44.278Z,6.70
2022-09-29T19:11:18.508Z,6.68
2022-09-29T19:13:45.189Z,6.17
2022-09-29T19:16:13.193Z,6.47
2022-09-29T19:18:39.964Z,6.20
2022-09-29T19:21:10.565Z,6.55
2022-09-29T19:23:37.826Z,6.10
2022-09-29T19:26:13.484Z,6.15
2022-09-29T19:28:40.445Z,6.38
2022-09-29T19:31:11.199Z,6.18
2022-09-29T19:33:39.656Z,6.32
2022-09-29T19:36:08.962Z,5.65
2022-09-29T19:38:36.924Z,6.07
2022-09-29T19:41:04.439Z,5.60
2022-09-29T19:43:32.098Z,5.40
2022-09-29T19:46:05.520Z,5.22
2022-09-29T19:48:32.081Z,6.38
2022-09-29T19:51:18.578Z,5.85
2022-09-29T19:53:48.692Z,6.30
2022-09-29T19:56:16.913Z,5.72
2022-09-29T19:58:43.482Z,6.13
2022-09-29T20:01:11.906Z,5.88
2022-09-29T20:03:38.640Z,7.55
2022-09-29T20:06:10.296Z,6.68
2022-09-29T20:08:36.842Z,6.60
2022-09-29T20:11:12.022Z,6.97
2022-09-29T20:16:06.002Z,7.57
2022-09-29T20:18:34.601Z,8.70
2022-09-29T20:21:10.369Z,6.72
2022-09-29T20:23:39.707Z,5.90
2022-09-29T20:26:10.391Z,5.72
2022-09-29T20:28:38.122Z,6.40
2022-09-29T20:31:07.294Z,6.57
2022-09-29T20:33:36.038Z,6.63
2022-09-29T20:36:03.971Z,6.93
2022-09-29T20:38:34.299Z,6.50
2022-09-29T20:41:01.770Z,6.97
2022-09-29T20:43:28.306Z,6.47
2022-09-29T20:46:02.068Z,6.93
2022-09-29T20:48:29.922Z,7.30
2022-09-29T20:50:59.857Z,6.30
2022-09-29T20:53:32.957Z,6.55
2022-09-29T20:56:01.321Z,6.70
2022-09-29T20:58:29.159Z,6.63
2022-09-29T21:00:55.648Z,6.70
2022-09-29T21:03:23.710Z,6.00
2022-09-29T21:05:50.844Z,6.05
2022-09-29T21:08:17.348Z,5.75
2022-09-29T21:10:43.848Z,6.00
2022-09-29T21:13:10.449Z,5.75
2022-09-29T21:15:36.963Z,6.18
2022-09-29T21:18:04.275Z,6.07
2022-09-29T21:20:30.798Z,5.95
2022-09-29T21:22:57.277Z,6.25
2022-09-29T21:25:23.938Z,6.03
2022-09-29T21:27:50.711Z,6.47
2022-09-29T21:30:17.304Z,6.22
2022-09-29T21:32:44.038Z,6.50
2022-09-29T21:35:11.011Z,6.03
2022-09-29T21:37:37.617Z,6.13
2022-09-29T21:40:04.575Z,6.70
2022-09-29T21:42:33.238Z,6.18
2022-09-29T21:45:00.994Z,7.40
2022-09-29T21:47:47.798Z,6.50
2022-09-29T21:50:14.410Z,6.25
2022-09-29T21:52:41.110Z,6.95
2022-09-29T21:55:08.137Z,6.80
2022-09-29T21:57:35.191Z,6.90
2022-09-29T22:00:02.309Z,6.95
2022-09-29T22:02:28.980Z,7.05
2022-09-29T22:04:55.619Z,6.72
2022-09-29T22:07:22.216Z,7.07
2022-09-29T22:09:49.476Z,5.95
2022-09-29T22:12:16.491Z,6.07
2022-09-29T22:14:47.000Z,5.60
2022-09-29T22:17:15.509Z,5.60
2022-09-29T22:19:42.019Z,5.75
2022-09-29T22:22:08.516Z,5.65
2022-09-29T22:24:35.289Z,5.85
2022-09-29T22:27:03.405Z,5.93
2022-09-29T22:29:29.956Z,6.28
2022-09-29T22:31:56.586Z,5.47
2022-09-29T22:34:23.197Z,5.97
2022-09-29T22:36:49.705Z,5.63
2022-09-29T22:39:16.190Z,5.22
2022-09-29T22:41:42.984Z,5.55
2022-09-29T22:44:09.572Z,6.13
2022-09-29T22:46:36.415Z,5.10
2022-09-29T22:49:03.549Z,5.75
2022-09-29T22:51:30.224Z,6.03
2022-09-29T22:53:56.900Z,5.75
2022-09-29T22:56:30.464Z,5.85
2022-09-29T22:59:02.374Z,5.70
2022-09-29T23:01:29.089Z,6.22
2022-09-29T23:03:55.847Z,6.60
2022-09-29T23:06:22.392Z,6.10
2022-09-29T23:08:49.013Z,5.45
2022-09-29T23:11:17.583Z,5.95
2022-09-29T23:13:44.931Z,6.18
2022-09-29T23:16:13.243Z,5.97
2022-09-29T23:18:44.296Z,6.47
2022-09-29T23:21:19.974Z,6.00
2022-09-29T23:23:56.046Z,5.93
2022-09-29T23:26:24.156Z,6.18
2022-09-29T23:28:51.276Z,5.85
2022-09-29T23:31:17.977Z,6.22
2022-09-29T23:33:44.505Z,5.97
2022-09-29T23:36:15.311Z,6.18
2022-09-29T23:39:02.201Z,5.78
2022-09-29T23:41:30.399Z,5.63
2022-09-29T23:43:59.502Z,5.93
2022-09-29T23:46:31.306Z,5.25
2022-09-29T23:48:59.029Z,5.10
2022-09-29T23:51:25.837Z,5.50
2022-09-29T23:53:52.787Z,5.25
2022-09-29T23:56:19.643Z,5.47
2022-09-29T23:58:46.262Z,5.60
